sensor_id;sensor_type;location;lat;lon;timestamp;P1;durP1;ratioP1;P2;durP2;ratioP2
22705;SDS011;11520;51.198;4.468;2023-05-10T00:00:50;21.63;;;10.73;;
22705;SDS011;11520;51.198;4.468;2023-05-10T00:03:16;18.17;;;10.35;;
22705;SDS011;11520;51.198;4.468;2023-05-10T00:05:42;18.80;;;11.15;;
22705;SDS011;11520;51.198;4.468;2023-05-10T00:08:07;17.98;;;10.00;;
22705;SDS011;11520;51.198;4.468;2023-05-10T00:10:33;19.30;;;10.68;;
22705;SDS011;11520;51.198;4.468;2023-05-10T00:12:59;16.05;;;9.85;;
22705;SDS011;11520;51.198;4.468;2023-05-10T00:15:25;19.75;;;10.77;;
22705;SDS011;11520;51.198;4.468;2023-05-10T00:17:50;20.55;;;10.13;;
22705;SDS011;11520;51.198;4.468;2023-05-10T00:20:16;17.85;;;10.45;;
22705;SDS011;11520;51.198;4.468;2023-05-10T00:22:41;17.98;;;9.32;;
22705;SDS011;11520;51.198;4.468;2023-05-10T00:25:07;15.77;;;9.57;;
22705;SDS011;11520;51.198;4.468;2023-05-10T00:27:34;21.90;;;10.57;;
22705;SDS011;11520;51.198;4.468;2023-05-10T00:29:59;21.02;;;10.85;;
22705;SDS011;11520;51.198;4.468;2023-05-10T00:32:25;20.85;;;11.23;;
22705;SDS011;11520;51.198;4.468;2023-05-10T00:34:51;18.63;;;11.43;;
22705;SDS011;11520;51.198;4.468;2023-05-10T00:37:16;21.15;;;12.50;;
22705;SDS011;11520;51.198;4.468;2023-05-10T00:39:42;21.77;;;12.50;;
22705;SDS011;11520;51.198;4.468;2023-05-10T00:42:08;21.67;;;12.77;;
22705;SDS011;11520;51.198;4.468;2023-05-10T00:44:33;23.90;;;13.73;;
22705;SDS011;11520;51.198;4.468;2023-05-10T00:46:59;23.50;;;13.63;;
22705;SDS011;11520;51.198;4.468;2023-05-10T00:49:25;23.73;;;14.32;;
22705;SDS011;11520;51.198;4.468;2023-05-10T00:51:51;22.83;;;12.77;;
22705;SDS011;11520;51.198;4.468;2023-05-10T00:54:16;22.30;;;13.45;;
22705;SDS011;11520;51.198;4.468;2023-05-10T00:56:42;26.08;;;14.35;;
22705;SDS011;11520;51.198;4.468;2023-05-10T00:59:13;24.30;;;13.73;;
22705;SDS011;11520;51.198;4.468;2023-05-10T01:01:41;25.13;;;13.82;;
22705;SDS011;11520;51.198;4.468;2023-05-10T01:04:07;23.60;;;13.40;;
22705;SDS011;11520;51.198;4.468;2023-05-10T01:06:34;24.85;;;14.38;;
22705;SDS011;11520;51.198;4.468;2023-05-10T01:09:00;24.25;;;13.57;;
22705;SDS011;11520;51.198;4.468;2023-05-10T01:11:26;27.05;;;14.20;;
22705;SDS011;11520;51.198;4.468;2023-05-10T01:13:53;28.25;;;14.88;;
22705;SDS011;11520;51.198;4.468;2023-05-10T01:16:21;27.85;;;15.25;;
22705;SDS011;11520;51.198;4.468;2023-05-10T01:18:48;29.40;;;15.95;;
22705;SDS011;11520;51.198;4.468;2023-05-10T01:35:10;34.63;;;18.90;;
22705;SDS011;11520;51.198;4.468;2023-05-10T01:38:06;38.42;;;18.90;;
22705;SDS011;11520;51.198;4.468;2023-05-10T01:43:37;32.45;;;16.83;;
22705;SDS011;11520;51.198;4.468;2023-05-10T01:46:17;30.15;;;16.83;;
22705;SDS011;11520;51.198;4.468;2023-05-10T01:48:51;31.10;;;17.30;;
22705;SDS011;11520;51.198;4.468;2023-05-10T01:51:23;27.42;;;15.88;;
22705;SDS011;11520;51.198;4.468;2023-05-10T01:53:51;30.42;;;17.30;;
22705;SDS011;11520;51.198;4.468;2023-05-10T01:56:23;28.13;;;15.85;;
22705;SDS011;11520;51.198;4.468;2023-05-10T01:58:51;27.35;;;15.98;;
22705;SDS011;11520;51.198;4.468;2023-05-10T02:01:19;24.27;;;14.23;;
22705;SDS011;11520;51.198;4.468;2023-05-10T02:03:46;25.30;;;15.05;;
22705;SDS011;11520;51.198;4.468;2023-05-10T02:06:14;28.70;;;17.00;;
22705;SDS011;11520;51.198;4.468;2023-05-10T02:08:43;31.20;;;16.45;;
22705;SDS011;11520;51.198;4.468;2023-05-10T02:11:10;28.42;;;16.67;;
22705;SDS011;11520;51.198;4.468;2023-05-10T02:13:38;23.10;;;14.40;;
22705;SDS011;11520;51.198;4.468;2023-05-10T02:16:05;28.77;;;15.65;;
22705;SDS011;11520;51.198;4.468;2023-05-10T02:18:32;24.67;;;15.60;;
22705;SDS011;11520;51.198;4.468;2023-05-10T02:20:59;27.00;;;15.15;;
22705;SDS011;11520;51.198;4.468;2023-05-10T02:23:27;30.90;;;15.85;;
22705;SDS011;11520;51.198;4.468;2023-05-10T02:25:54;27.77;;;16.10;;
22705;SDS011;11520;51.198;4.468;2023-05-10T02:28:23;29.50;;;17.33;;
22705;SDS011;11520;51.198;4.468;2023-05-10T02:30:50;28.10;;;16.08;;
22705;SDS011;11520;51.198;4.468;2023-05-10T02:33:17;24.83;;;15.75;;
22705;SDS011;11520;51.198;4.468;2023-05-10T02:35:43;27.17;;;15.35;;
22705;SDS011;11520;51.198;4.468;2023-05-10T02:38:09;25.05;;;14.15;;
22705;SDS011;11520;51.198;4.468;2023-05-10T02:40:36;25.50;;;16.15;;
22705;SDS011;11520;51.198;4.468;2023-05-10T02:43:03;27.23;;;16.17;;
22705;SDS011;11520;51.198;4.468;2023-05-10T02:45:31;30.23;;;16.60;;
22705;SDS011;11520;51.198;4.468;2023-05-10T02:48:00;26.35;;;16.40;;
22705;SDS011;11520;51.198;4.468;2023-05-10T02:50:27;28.77;;;17.13;;
22705;SDS011;11520;51.198;4.468;2023-05-10T02:52:56;32.63;;;19.17;;
22705;SDS011;11520;51.198;4.468;2023-05-10T02:55:30;32.35;;;19.02;;
22705;SDS011;11520;51.198;4.468;2023-05-10T02:57:58;42.72;;;22.58;;
22705;SDS011;11520;51.198;4.468;2023-05-10T03:00:25;43.50;;;23.13;;
22705;SDS011;11520;51.198;4.468;2023-05-10T03:02:51;48.55;;;24.88;;
22705;SDS011;11520;51.198;4.468;2023-05-10T03:05:17;59.25;;;29.58;;
22705;SDS011;11520;51.198;4.468;2023-05-10T03:07:43;89.82;;;40.47;;
22705;SDS011;11520;51.198;4.468;2023-05-10T03:10:10;105.68;;;46.85;;
22705;SDS011;11520;51.198;4.468;2023-05-10T03:18:15;101.72;;;47.20;;
22705;SDS011;11520;51.198;4.468;2023-05-10T03:20:47;107.60;;;48.10;;
22705;SDS011;11520;51.198;4.468;2023-05-10T03:23:20;99.43;;;45.50;;
22705;SDS011;11520;51.198;4.468;2023-05-10T03:25:51;82.50;;;40.20;;
22705;SDS011;11520;51.198;4.468;2023-05-10T03:28:18;78.93;;;37.83;;
22705;SDS011;11520;51.198;4.468;2023-05-10T03:30:45;63.83;;;34.20;;
22705;SDS011;11520;51.198;4.468;2023-05-10T03:33:11;62.92;;;31.25;;
22705;SDS011;11520;51.198;4.468;2023-05-10T03:35:38;59.45;;;30.58;;
22705;SDS011;11520;51.198;4.468;2023-05-10T03:38:04;55.75;;;28.60;;
22705;SDS011;11520;51.198;4.468;2023-05-10T03:40:29;56.03;;;27.73;;
22705;SDS011;11520;51.198;4.468;2023-05-10T03:42:57;52.47;;;27.48;;
22705;SDS011;11520;51.198;4.468;2023-05-10T03:45:23;54.10;;;28.77;;
22705;SDS011;11520;51.198;4.468;2023-05-10T03:47:48;53.55;;;28.17;;
22705;SDS011;11520;51.198;4.468;2023-05-10T03:50:14;50.40;;;27.20;;
22705;SDS011;11520;51.198;4.468;2023-05-10T03:52:40;49.17;;;25.27;;
22705;SDS011;11520;51.198;4.468;2023-05-10T03:55:06;49.83;;;25.00;;
22705;SDS011;11520;51.198;4.468;2023-05-10T03:57:32;47.95;;;25.85;;
22705;SDS011;11520;51.198;4.468;2023-05-10T03:59:58;49.08;;;25.05;;
22705;SDS011;11520;51.198;4.468;2023-05-10T04:02:24;45.50;;;23.98;;
22705;SDS011;11520;51.198;4.468;2023-05-10T04:04:50;46.10;;;24.17;;
22705;SDS011;11520;51.198;4.468;2023-05-10T04:07:15;47.72;;;24.38;;
22705;SDS011;11520;51.198;4.468;2023-05-10T04:09:41;48.45;;;24.33;;
22705;SDS011;11520;51.198;4.468;2023-05-10T04:12:07;45.72;;;24.63;;
22705;SDS011;11520;51.198;4.468;2023-05-10T04:14:32;46.05;;;23.60;;
22705;SDS011;11520;51.198;4.468;2023-05-10T04:16:58;44.42;;;23.05;;
22705;SDS011;11520;51.198;4.468;2023-05-10T04:19:24;49.03;;;24.08;;
22705;SDS011;11520;51.198;4.468;2023-05-10T04:21:53;45.42;;;22.65;;
22705;SDS011;11520;51.198;4.468;2023-05-10T04:24:19;44.05;;;22.65;;
22705;SDS011;11520;51.198;4.468;2023-05-10T04:26:44;42.22;;;22.23;;
22705;SDS011;11520;51.198;4.468;2023-05-10T04:29:10;44.92;;;23.15;;
22705;SDS011;11520;51.198;4.468;2023-05-10T04:31:36;44.85;;;22.85;;
22705;SDS011;11520;51.198;4.468;2023-05-10T04:34:01;43.15;;;22.20;;
22705;SDS011;11520;51.198;4.468;2023-05-10T04:36:27;45.65;;;22.42;;
22705;SDS011;11520;51.198;4.468;2023-05-10T04:38:53;44.40;;;22.90;;
22705;SDS011;11520;51.198;4.468;2023-05-10T04:41:19;45.15;;;22.30;;
22705;SDS011;11520;51.198;4.468;2023-05-10T04:43:45;46.72;;;22.50;;
22705;SDS011;11520;51.198;4.468;2023-05-10T04:46:11;44.35;;;23.05;;
22705;SDS011;11520;51.198;4.468;2023-05-10T04:48:37;48.28;;;24.67;;
22705;SDS011;11520;51.198;4.468;2023-05-10T04:51:02;46.13;;;22.48;;
22705;SDS011;11520;51.198;4.468;2023-05-10T04:53:29;49.95;;;24.17;;
22705;SDS011;11520;51.198;4.468;2023-05-10T04:55:54;50.22;;;24.55;;
22705;SDS011;11520;51.198;4.468;2023-05-10T04:58:20;48.25;;;23.67;;
22705;SDS011;11520;51.198;4.468;2023-05-10T05:00:46;48.72;;;24.30;;
22705;SDS011;11520;51.198;4.468;2023-05-10T05:03:11;53.95;;;25.15;;
22705;SDS011;11520;51.198;4.468;2023-05-10T05:05:37;50.80;;;24.40;;
22705;SDS011;11520;51.198;4.468;2023-05-10T05:08:03;52.85;;;25.02;;
22705;SDS011;11520;51.198;4.468;2023-05-10T05:10:28;44.67;;;23.65;;
22705;SDS011;11520;51.198;4.468;2023-05-10T05:12:54;52.63;;;25.15;;
22705;SDS011;11520;51.198;4.468;2023-05-10T05:15:20;49.38;;;25.10;;
22705;SDS011;11520;51.198;4.468;2023-05-10T05:17:46;53.67;;;27.95;;
22705;SDS011;11520;51.198;4.468;2023-05-10T05:20:11;48.38;;;26.55;;
22705;SDS011;11520;51.198;4.468;2023-05-10T05:22:38;47.70;;;25.48;;
22705;SDS011;11520;51.198;4.468;2023-05-10T05:25:04;49.17;;;25.13;;
22705;SDS011;11520;51.198;4.468;2023-05-10T05:27:30;51.75;;;25.38;;
22705;SDS011;11520;51.198;4.468;2023-05-10T05:29:57;44.55;;;23.20;;
22705;SDS011;11520;51.198;4.468;2023-05-10T05:32:23;39.88;;;21.83;;
22705;SDS011;11520;51.198;4.468;2023-05-10T05:34:49;36.15;;;20.55;;
22705;SDS011;11520;51.198;4.468;2023-05-10T05:37:15;37.60;;;20.10;;
22705;SDS011;11520;51.198;4.468;2023-05-10T05:39:42;36.70;;;19.08;;
22705;SDS011;11520;51.198;4.468;2023-05-10T05:42:09;32.83;;;19.77;;
22705;SDS011;11520;51.198;4.468;2023-05-10T05:44:35;33.65;;;19.48;;
22705;SDS011;11520;51.198;4.468;2023-05-10T05:47:01;35.45;;;18.77;;
22705;SDS011;11520;51.198;4.468;2023-05-10T05:49:27;32.45;;;18.83;;
22705;SDS011;11520;51.198;4.468;2023-05-10T05:51:52;30.13;;;18.20;;
22705;SDS011;11520;51.198;4.468;2023-05-10T05:54:18;29.55;;;18.00;;
22705;SDS011;11520;51.198;4.468;2023-05-10T05:56:44;31.50;;;18.33;;
22705;SDS011;11520;51.198;4.468;2023-05-10T05:59:10;31.58;;;17.48;;
22705;SDS011;11520;51.198;4.468;2023-05-10T06:01:36;32.33;;;17.88;;
22705;SDS011;11520;51.198;4.468;2023-05-10T06:04:01;38.17;;;21.05;;
22705;SDS011;11520;51.198;4.468;2023-05-10T06:06:27;35.35;;;20.67;;
22705;SDS011;11520;51.198;4.468;2023-05-10T06:08:53;36.88;;;20.63;;
22705;SDS011;11520;51.198;4.468;2023-05-10T06:11:19;35.60;;;21.50;;
22705;SDS011;11520;51.198;4.468;2023-05-10T06:13:46;36.83;;;22.48;;
22705;SDS011;11520;51.198;4.468;2023-05-10T06:16:12;37.65;;;23.45;;
22705;SDS011;11520;51.198;4.468;2023-05-10T06:18:38;35.63;;;21.27;;
22705;SDS011;11520;51.198;4.468;2023-05-10T06:21:03;36.83;;;22.25;;
22705;SDS011;11520;51.198;4.468;2023-05-10T06:23:29;34.10;;;20.95;;
22705;SDS011;11520;51.198;4.468;2023-05-10T06:25:55;31.48;;;19.77;;
22705;SDS011;11520;51.198;4.468;2023-05-10T06:28:21;29.17;;;19.40;;
22705;SDS011;11520;51.198;4.468;2023-05-10T06:30:46;36.10;;;20.80;;
22705;SDS011;11520;51.198;4.468;2023-05-10T06:33:12;31.20;;;19.40;;
22705;SDS011;11520;51.198;4.468;2023-05-10T06:35:38;31.08;;;20.13;;
22705;SDS011;11520;51.198;4.468;2023-05-10T06:38:04;28.70;;;18.08;;
22705;SDS011;11520;51.198;4.468;2023-05-10T06:40:29;26.20;;;16.50;;
22705;SDS011;11520;51.198;4.468;2023-05-10T06:42:55;27.38;;;16.65;;
22705;SDS011;11520;51.198;4.468;2023-05-10T06:45:21;26.75;;;16.92;;
22705;SDS011;11520;51.198;4.468;2023-05-10T06:47:46;25.50;;;17.33;;
22705;SDS011;11520;51.198;4.468;2023-05-10T06:50:12;27.20;;;18.63;;
22705;SDS011;11520;51.198;4.468;2023-05-10T06:52:38;28.27;;;17.33;;
22705;SDS011;11520;51.198;4.468;2023-05-10T06:55:04;23.98;;;17.48;;
22705;SDS011;11520;51.198;4.468;2023-05-10T06:57:30;27.52;;;17.88;;
22705;SDS011;11520;51.198;4.468;2023-05-10T06:59:57;28.88;;;19.15;;
22705;SDS011;11520;51.198;4.468;2023-05-10T07:02:26;28.67;;;18.00;;
22705;SDS011;11520;51.198;4.468;2023-05-10T07:04:51;30.25;;;18.67;;
22705;SDS011;11520;51.198;4.468;2023-05-10T07:07:17;27.20;;;17.73;;
22705;SDS011;11520;51.198;4.468;2023-05-10T07:09:43;26.38;;;17.00;;
22705;SDS011;11520;51.198;4.468;2023-05-10T07:12:09;30.90;;;18.25;;
22705;SDS011;11520;51.198;4.468;2023-05-10T07:14:34;29.33;;;18.45;;
22705;SDS011;11520;51.198;4.468;2023-05-10T07:17:00;28.23;;;19.30;;
22705;SDS011;11520;51.198;4.468;2023-05-10T07:19:27;26.75;;;18.35;;
22705;SDS011;11520;51.198;4.468;2023-05-10T07:21:54;31.20;;;18.17;;
22705;SDS011;11520;51.198;4.468;2023-05-10T07:24:20;25.65;;;16.40;;
22705;SDS011;11520;51.198;4.468;2023-05-10T07:26:46;23.75;;;15.02;;
22705;SDS011;11520;51.198;4.468;2023-05-10T07:29:11;21.45;;;15.20;;
22705;SDS011;11520;51.198;4.468;2023-05-10T07:31:37;19.50;;;13.38;;
22705;SDS011;11520;51.198;4.468;2023-05-10T07:34:03;20.20;;;13.43;;
22705;SDS011;11520;51.198;4.468;2023-05-10T07:36:28;20.23;;;13.43;;
22705;SDS011;11520;51.198;4.468;2023-05-10T07:38:54;17.02;;;11.45;;
22705;SDS011;11520;51.198;4.468;2023-05-10T07:41:20;15.13;;;11.13;;
22705;SDS011;11520;51.198;4.468;2023-05-10T07:43:46;16.35;;;10.93;;
22705;SDS011;11520;51.198;4.468;2023-05-10T07:46:11;12.85;;;9.02;;
22705;SDS011;11520;51.198;4.468;2023-05-10T07:48:37;13.10;;;7.60;;
22705;SDS011;11520;51.198;4.468;2023-05-10T07:51:02;11.77;;;8.93;;
22705;SDS011;11520;51.198;4.468;2023-05-10T07:53:28;12.13;;;7.50;;
22705;SDS011;11520;51.198;4.468;2023-05-10T07:55:54;8.82;;;7.05;;
22705;SDS011;11520;51.198;4.468;2023-05-10T07:58:25;7.03;;;5.72;;
22705;SDS011;11520;51.198;4.468;2023-05-10T08:00:51;7.75;;;4.85;;
22705;SDS011;11520;51.198;4.468;2023-05-10T08:03:17;6.50;;;4.75;;
22705;SDS011;11520;51.198;4.468;2023-05-10T08:05:42;6.53;;;5.93;;
22705;SDS011;11520;51.198;4.468;2023-05-10T08:08:08;7.13;;;6.03;;
22705;SDS011;11520;51.198;4.468;2023-05-10T08:10:34;7.43;;;5.95;;
22705;SDS011;11520;51.198;4.468;2023-05-10T08:13:00;8.45;;;6.50;;
22705;SDS011;11520;51.198;4.468;2023-05-10T08:15:25;9.18;;;5.88;;
22705;SDS011;11520;51.198;4.468;2023-05-10T08:17:51;7.45;;;6.03;;
22705;SDS011;11520;51.198;4.468;2023-05-10T08:20:17;6.82;;;5.43;;
22705;SDS011;11520;51.198;4.468;2023-05-10T08:22:44;6.63;;;5.25;;
22705;SDS011;11520;51.198;4.468;2023-05-10T08:25:10;5.93;;;5.22;;
22705;SDS011;11520;51.198;4.468;2023-05-10T08:27:36;5.18;;;4.68;;
22705;SDS011;11520;51.198;4.468;2023-05-10T08:30:02;6.78;;;5.18;;
22705;SDS011;11520;51.198;4.468;2023-05-10T08:32:27;11.90;;;9.50;;
22705;SDS011;11520;51.198;4.468;2023-05-10T08:34:53;12.68;;;10.65;;
22705;SDS011;11520;51.198;4.468;2023-05-10T08:37:19;19.25;;;13.75;;
22705;SDS011;11520;51.198;4.468;2023-05-10T08:39:45;17.05;;;14.35;;
22705;SDS011;11520;51.198;4.468;2023-05-10T08:42:15;18.55;;;13.65;;
22705;SDS011;11520;51.198;4.468;2023-05-10T08:44:45;12.88;;;9.93;;
22705;SDS011;11520;51.198;4.468;2023-05-10T08:47:13;12.20;;;10.90;;
22705;SDS011;11520;51.198;4.468;2023-05-10T08:49:42;17.25;;;14.15;;
22705;SDS011;11520;51.198;4.468;2023-05-10T08:52:09;17.80;;;13.45;;
22705;SDS011;11520;51.198;4.468;2023-05-10T08:54:38;17.58;;;14.05;;
22705;SDS011;11520;51.198;4.468;2023-05-10T08:57:03;17.98;;;14.50;;
22705;SDS011;11520;51.198;4.468;2023-05-10T08:59:29;17.20;;;15.18;;
22705;SDS011;11520;51.198;4.468;2023-05-10T09:01:58;17.05;;;13.80;;
22705;SDS011;11520;51.198;4.468;2023-05-10T09:04:25;15.43;;;11.05;;
22705;SDS011;11520;51.198;4.468;2023-05-10T09:06:51;18.27;;;13.40;;
22705;SDS011;11520;51.198;4.468;2023-05-10T09:09:17;19.33;;;13.98;;
22705;SDS011;11520;51.198;4.468;2023-05-10T09:11:44;17.67;;;13.43;;
22705;SDS011;11520;51.198;4.468;2023-05-10T09:14:11;18.60;;;13.85;;
22705;SDS011;11520;51.198;4.468;2023-05-10T09:16:38;20.35;;;13.77;;
22705;SDS011;11520;51.198;4.468;2023-05-10T09:19:03;19.42;;;14.20;;
22705;SDS011;11520;51.198;4.468;2023-05-10T09:21:29;22.77;;;14.63;;
22705;SDS011;11520;51.198;4.468;2023-05-10T09:23:56;20.67;;;14.50;;
22705;SDS011;11520;51.198;4.468;2023-05-10T09:26:22;18.70;;;13.15;;
22705;SDS011;11520;51.198;4.468;2023-05-10T09:31:21;16.85;;;12.38;;
22705;SDS011;11520;51.198;4.468;2023-05-10T09:33:47;19.38;;;12.70;;
22705;SDS011;11520;51.198;4.468;2023-05-10T09:36:14;16.80;;;12.90;;
22705;SDS011;11520;51.198;4.468;2023-05-10T09:38:47;20.50;;;12.73;;
22705;SDS011;11520;51.198;4.468;2023-05-10T09:41:17;23.33;;;13.98;;
22705;SDS011;11520;51.198;4.468;2023-05-10T09:43:45;17.70;;;12.48;;
22705;SDS011;11520;51.198;4.468;2023-05-10T09:46:10;21.67;;;13.15;;
22705;SDS011;11520;51.198;4.468;2023-05-10T09:48:43;26.20;;;13.85;;
22705;SDS011;11520;51.198;4.468;2023-05-10T09:51:10;24.90;;;14.40;;
22705;SDS011;11520;51.198;4.468;2023-05-10T09:53:43;23.55;;;14.00;;
22705;SDS011;11520;51.198;4.468;2023-05-10T09:56:11;22.13;;;12.95;;
22705;SDS011;11520;51.198;4.468;2023-05-10T09:58:36;20.90;;;13.20;;
22705;SDS011;11520;51.198;4.468;2023-05-10T10:01:05;20.73;;;11.75;;
22705;SDS011;11520;51.198;4.468;2023-05-10T10:03:40;24.13;;;13.05;;
22705;SDS011;11520;51.198;4.468;2023-05-10T10:06:07;19.67;;;11.43;;
22705;SDS011;11520;51.198;4.468;2023-05-10T10:08:33;21.05;;;11.00;;
22705;SDS011;11520;51.198;4.468;2023-05-10T10:10:59;22.75;;;11.65;;
22705;SDS011;11520;51.198;4.468;2023-05-10T10:13:25;17.63;;;10.02;;
22705;SDS011;11520;51.198;4.468;2023-05-10T10:15:51;17.50;;;9.82;;
22705;SDS011;11520;51.198;4.468;2023-05-10T10:18:18;23.27;;;11.52;;
22705;SDS011;11520;51.198;4.468;2023-05-10T10:20:48;15.55;;;8.95;;
22705;SDS011;11520;51.198;4.468;2023-05-10T10:23:14;15.65;;;9.38;;
22705;SDS011;11520;51.198;4.468;2023-05-10T10:25:40;15.85;;;9.25;;
22705;SDS011;11520;51.198;4.468;2023-05-10T10:30:47;20.42;;;10.30;;
22705;SDS011;11520;51.198;4.468;2023-05-10T10:36:08;15.27;;;10.27;;
22705;SDS011;11520;51.198;4.468;2023-05-10T10:41:38;23.45;;;10.23;;
22705;SDS011;11520;51.198;4.468;2023-05-10T10:52:15;12.77;;;8.85;;
22705;SDS011;11520;51.198;4.468;2023-05-10T10:55:07;16.77;;;9.68;;
22705;SDS011;11520;51.198;4.468;2023-05-10T11:00:24;15.13;;;8.85;;
22705;SDS011;11520;51.198;4.468;2023-05-10T11:02:51;16.35;;;9.13;;
22705;SDS011;11520;51.198;4.468;2023-05-10T11:08:06;17.02;;;9.68;;
22705;SDS011;11520;51.198;4.468;2023-05-10T11:10:34;15.13;;;10.07;;
22705;SDS011;11520;51.198;4.468;2023-05-10T11:15:34;15.98;;;9.25;;
22705;SDS011;11520;51.198;4.468;2023-05-10T11:18:20;15.88;;;10.05;;
22705;SDS011;11520;51.198;4.468;2023-05-10T11:20:54;18.13;;;9.98;;
22705;SDS011;11520;51.198;4.468;2023-05-10T11:23:28;15.82;;;10.20;;
22705;SDS011;11520;51.198;4.468;2023-05-10T11:25:55;14.48;;;10.70;;
22705;SDS011;11520;51.198;4.468;2023-05-10T11:28:21;14.52;;;9.73;;
22705;SDS011;11520;51.198;4.468;2023-05-10T11:30:47;15.90;;;10.75;;
22705;SDS011;11520;51.198;4.468;2023-05-10T11:33:17;20.95;;;10.02;;
22705;SDS011;11520;51.198;4.468;2023-05-10T11:35:44;19.20;;;11.48;;
22705;SDS011;11520;51.198;4.468;2023-05-10T11:38:11;18.25;;;10.70;;
22705;SDS011;11520;51.198;4.468;2023-05-10T11:40:37;14.65;;;10.65;;
22705;SDS011;11520;51.198;4.468;2023-05-10T11:43:04;20.27;;;11.07;;
22705;SDS011;11520;51.198;4.468;2023-05-10T11:45:34;15.68;;;11.18;;
22705;SDS011;11520;51.198;4.468;2023-05-10T11:48:01;14.13;;;9.77;;
22705;SDS011;11520;51.198;4.468;2023-05-10T11:50:27;17.65;;;10.93;;
22705;SDS011;11520;51.198;4.468;2023-05-10T11:52:54;15.20;;;9.95;;
22705;SDS011;11520;51.198;4.468;2023-05-10T11:55:21;15.25;;;10.20;;
22705;SDS011;11520;51.198;4.468;2023-05-10T11:57:47;16.70;;;10.43;;
22705;SDS011;11520;51.198;4.468;2023-05-10T12:00:16;16.17;;;10.57;;
22705;SDS011;11520;51.198;4.468;2023-05-10T12:02:42;14.70;;;10.30;;
22705;SDS011;11520;51.198;4.468;2023-05-10T12:05:08;18.92;;;10.77;;
22705;SDS011;11520;51.198;4.468;2023-05-10T12:07:35;18.35;;;10.40;;
22705;SDS011;11520;51.198;4.468;2023-05-10T12:10:10;16.30;;;10.27;;
22705;SDS011;11520;51.198;4.468;2023-05-10T12:12:43;14.38;;;9.82;;
22705;SDS011;11520;51.198;4.468;2023-05-10T12:15:31;15.45;;;10.23;;
22705;SDS011;11520;51.198;4.468;2023-05-10T12:17:57;15.25;;;10.00;;
22705;SDS011;11520;51.198;4.468;2023-05-10T12:20:23;15.23;;;9.63;;
22705;SDS011;11520;51.198;4.468;2023-05-10T12:22:53;13.90;;;9.55;;
22705;SDS011;11520;51.198;4.468;2023-05-10T12:25:21;16.75;;;10.50;;
22705;SDS011;11520;51.198;4.468;2023-05-10T12:27:49;14.63;;;9.15;;
22705;SDS011;11520;51.198;4.468;2023-05-10T12:30:25;14.82;;;9.75;;
22705;SDS011;11520;51.198;4.468;2023-05-10T12:32:52;15.32;;;9.25;;
22705;SDS011;11520;51.198;4.468;2023-05-10T12:35:18;14.38;;;9.70;;
22705;SDS011;11520;51.198;4.468;2023-05-10T12:37:49;15.50;;;9.82;;
22705;SDS011;11520;51.198;4.468;2023-05-10T12:40:19;18.27;;;10.80;;
22705;SDS011;11520;51.198;4.468;2023-05-10T12:42:45;17.45;;;10.65;;
22705;SDS011;11520;51.198;4.468;2023-05-10T12:45:11;14.10;;;9.75;;
22705;SDS011;11520;51.198;4.468;2023-05-10T12:47:36;13.23;;;9.30;;
22705;SDS011;11520;51.198;4.468;2023-05-10T12:50:02;13.32;;;9.45;;
22705;SDS011;11520;51.198;4.468;2023-05-10T12:52:29;13.05;;;9.25;;
22705;SDS011;11520;51.198;4.468;2023-05-10T12:54:55;15.25;;;10.30;;
22705;SDS011;11520;51.198;4.468;2023-05-10T12:57:20;13.45;;;9.88;;
22705;SDS011;11520;51.198;4.468;2023-05-10T12:59:46;16.38;;;10.25;;
22705;SDS011;11520;51.198;4.468;2023-05-10T13:02:12;18.13;;;10.23;;
22705;SDS011;11520;51.198;4.468;2023-05-10T13:04:39;16.58;;;9.40;;
22705;SDS011;11520;51.198;4.468;2023-05-10T13:07:06;14.00;;;9.07;;
22705;SDS011;11520;51.198;4.468;2023-05-10T13:09:31;12.63;;;8.80;;
22705;SDS011;11520;51.198;4.468;2023-05-10T13:11:57;12.82;;;9.88;;
22705;SDS011;11520;51.198;4.468;2023-05-10T13:14:23;14.25;;;9.68;;
22705;SDS011;11520;51.198;4.468;2023-05-10T13:16:49;17.98;;;10.32;;
22705;SDS011;11520;51.198;4.468;2023-05-10T13:19:15;15.50;;;10.98;;
22705;SDS011;11520;51.198;4.468;2023-05-10T13:21:41;14.27;;;9.70;;
22705;SDS011;11520;51.198;4.468;2023-05-10T13:24:06;15.07;;;9.32;;
22705;SDS011;11520;51.198;4.468;2023-05-10T13:26:32;19.70;;;9.57;;
22705;SDS011;11520;51.198;4.468;2023-05-10T13:28:58;15.98;;;10.02;;
22705;SDS011;11520;51.198;4.468;2023-05-10T13:31:24;15.90;;;10.05;;
22705;SDS011;11520;51.198;4.468;2023-05-10T13:33:50;15.93;;;10.30;;
22705;SDS011;11520;51.198;4.468;2023-05-10T13:36:16;14.10;;;9.90;;
22705;SDS011;11520;51.198;4.468;2023-05-10T13:38:41;14.48;;;10.10;;
22705;SDS011;11520;51.198;4.468;2023-05-10T13:41:07;19.42;;;10.60;;
22705;SDS011;11520;51.198;4.468;2023-05-10T13:43:32;14.85;;;10.02;;
22705;SDS011;11520;51.198;4.468;2023-05-10T13:45:58;12.95;;;9.88;;
22705;SDS011;11520;51.198;4.468;2023-05-10T13:48:25;13.80;;;9.63;;
22705;SDS011;11520;51.198;4.468;2023-05-10T13:50:52;17.13;;;10.13;;
22705;SDS011;11520;51.198;4.468;2023-05-10T13:53:17;17.05;;;9.57;;
22705;SDS011;11520;51.198;4.468;2023-05-10T13:55:43;16.63;;;9.18;;
22705;SDS011;11520;51.198;4.468;2023-05-10T13:58:09;17.15;;;10.18;;
22705;SDS011;11520;51.198;4.468;2023-05-10T14:00:35;16.23;;;11.02;;
22705;SDS011;11520;51.198;4.468;2023-05-10T14:03:02;18.55;;;10.43;;
22705;SDS011;11520;51.198;4.468;2023-05-10T14:05:29;14.52;;;10.40;;
22705;SDS011;11520;51.198;4.468;2023-05-10T14:07:56;17.30;;;10.85;;
22705;SDS011;11520;51.198;4.468;2023-05-10T14:10:22;17.10;;;11.15;;
22705;SDS011;11520;51.198;4.468;2023-05-10T14:12:49;16.65;;;11.23;;
22705;SDS011;11520;51.198;4.468;2023-05-10T14:15:15;16.48;;;11.10;;
22705;SDS011;11520;51.198;4.468;2023-05-10T14:17:41;18.40;;;11.93;;
22705;SDS011;11520;51.198;4.468;2023-05-10T14:20:07;21.20;;;12.02;;
22705;SDS011;11520;51.198;4.468;2023-05-10T14:22:33;18.10;;;12.00;;
22705;SDS011;11520;51.198;4.468;2023-05-10T14:24:59;17.92;;;12.50;;
22705;SDS011;11520;51.198;4.468;2023-05-10T14:27:25;16.63;;;10.48;;
22705;SDS011;11520;51.198;4.468;2023-05-10T14:29:50;19.70;;;11.98;;
22705;SDS011;11520;51.198;4.468;2023-05-10T14:32:16;18.65;;;11.82;;
22705;SDS011;11520;51.198;4.468;2023-05-10T14:34:42;17.38;;;11.13;;
22705;SDS011;11520;51.198;4.468;2023-05-10T14:37:09;15.88;;;11.70;;
22705;SDS011;11520;51.198;4.468;2023-05-10T14:39:36;19.02;;;12.00;;
22705;SDS011;11520;51.198;4.468;2023-05-10T14:42:02;24.05;;;14.02;;
22705;SDS011;11520;51.198;4.468;2023-05-10T14:44:27;17.75;;;11.85;;
22705;SDS011;11520;51.198;4.468;2023-05-10T14:46:53;17.70;;;12.38;;
22705;SDS011;11520;51.198;4.468;2023-05-10T14:49:19;18.67;;;12.15;;
22705;SDS011;11520;51.198;4.468;2023-05-10T14:51:47;22.15;;;13.05;;
22705;SDS011;11520;51.198;4.468;2023-05-10T14:54:13;19.83;;;12.93;;
22705;SDS011;11520;51.198;4.468;2023-05-10T14:56:42;18.30;;;12.60;;
22705;SDS011;11520;51.198;4.468;2023-05-10T14:59:08;14.90;;;11.65;;
22705;SDS011;11520;51.198;4.468;2023-05-10T15:01:34;20.10;;;12.55;;
22705;SDS011;11520;51.198;4.468;2023-05-10T15:04:02;17.60;;;11.88;;
22705;SDS011;11520;51.198;4.468;2023-05-10T15:06:32;20.70;;;12.82;;
22705;SDS011;11520;51.198;4.468;2023-05-10T15:08:59;14.02;;;9.35;;
22705;SDS011;11520;51.198;4.468;2023-05-10T15:11:26;9.85;;;6.22;;